sensor_id;sensor_type;location;lat;lon;timestamp;P1;durP1;ratioP1;P2;durP2;ratioP2
60478;SDS011;46321;48.398;11.754;2023-04-15T00:01:54;11.95;;;7.25;;
60478;SDS011;46321;48.398;11.754;2023-04-15T00:04:19;12.57;;;7.88;;
60478;SDS011;46321;48.398;11.754;2023-04-15T00:06:49;13.32;;;7.35;;
60478;SDS011;46321;48.398;11.754;2023-04-15T00:09:17;13.00;;;7.35;;
60478;SDS011;46321;48.398;11.754;2023-04-15T00:11:43;12.07;;;7.10;;
60478;SDS011;46321;48.398;11.754;2023-04-15T00:14:08;11.90;;;7.28;;
60478;SDS011;46321;48.398;11.754;2023-04-15T00:16:33;14.90;;;7.63;;
60478;SDS011;46321;48.398;11.754;2023-04-15T00:18:59;12.40;;;7.80;;
60478;SDS011;46321;48.398;11.754;2023-04-15T00:21:24;14.30;;;8.35;;
60478;SDS011;46321;48.398;11.754;2023-04-15T00:23:49;11.23;;;7.20;;
60478;SDS011;46321;48.398;11.754;2023-04-15T00:26:17;12.50;;;7.47;;
60478;SDS011;46321;48.398;11.754;2023-04-15T00:28:43;14.27;;;8.00;;
60478;SDS011;46321;48.398;11.754;2023-04-15T00:31:09;12.55;;;7.13;;
60478;SDS011;46321;48.398;11.754;2023-04-15T00:33:34;13.93;;;7.63;;
60478;SDS011;46321;48.398;11.754;2023-04-15T00:36:00;14.98;;;7.75;;
60478;SDS011;46321;48.398;11.754;2023-04-15T00:38:27;13.38;;;7.38;;
60478;SDS011;46321;48.398;11.754;2023-04-15T00:40:52;12.45;;;6.80;;
60478;SDS011;46321;48.398;11.754;2023-04-15T00:43:19;13.65;;;7.63;;
60478;SDS011;46321;48.398;11.754;2023-04-15T00:45:44;12.13;;;7.38;;
60478;SDS011;46321;48.398;11.754;2023-04-15T00:48:12;12.50;;;8.07;;
60478;SDS011;46321;48.398;11.754;2023-04-15T00:50:37;13.65;;;7.43;;
60478;SDS011;46321;48.398;11.754;2023-04-15T00:53:03;13.32;;;7.32;;
60478;SDS011;46321;48.398;11.754;2023-04-15T00:55:28;13.82;;;7.43;;
60478;SDS011;46321;48.398;11.754;2023-04-15T00:57:53;12.02;;;7.30;;
60478;SDS011;46321;48.398;11.754;2023-04-15T01:00:20;12.75;;;7.40;;
60478;SDS011;46321;48.398;11.754;2023-04-15T01:02:45;12.57;;;7.25;;
60478;SDS011;46321;48.398;11.754;2023-04-15T01:05:11;12.70;;;7.80;;
60478;SDS011;46321;48.398;11.754;2023-04-15T01:07:36;14.00;;;7.07;;
60478;SDS011;46321;48.398;11.754;2023-04-15T01:10:02;11.40;;;7.20;;
60478;SDS011;46321;48.398;11.754;2023-04-15T01:12:28;12.63;;;7.55;;
60478;SDS011;46321;48.398;11.754;2023-04-15T01:14:57;10.82;;;7.28;;
60478;SDS011;46321;48.398;11.754;2023-04-15T01:17:23;10.32;;;6.50;;
60478;SDS011;46321;48.398;11.754;2023-04-15T01:19:49;13.82;;;7.28;;
60478;SDS011;46321;48.398;11.754;2023-04-15T01:22:15;11.45;;;6.50;;
60478;SDS011;46321;48.398;11.754;2023-04-15T01:24:41;11.00;;;6.63;;
60478;SDS011;46321;48.398;11.754;2023-04-15T01:29:40;10.18;;;6.38;;
60478;SDS011;46321;48.398;11.754;2023-04-15T01:32:05;9.98;;;6.60;;
60478;SDS011;46321;48.398;11.754;2023-04-15T01:34:30;13.85;;;6.78;;
60478;SDS011;46321;48.398;11.754;2023-04-15T01:36:56;11.63;;;7.28;;
60478;SDS011;46321;48.398;11.754;2023-04-15T01:39:21;10.68;;;6.50;;
60478;SDS011;46321;48.398;11.754;2023-04-15T01:41:46;11.00;;;6.70;;
60478;SDS011;46321;48.398;11.754;2023-04-15T01:44:12;11.05;;;6.78;;
60478;SDS011;46321;48.398;11.754;2023-04-15T01:46:37;9.70;;;6.43;;
60478;SDS011;46321;48.398;11.754;2023-04-15T01:49:03;11.25;;;6.45;;
60478;SDS011;46321;48.398;11.754;2023-04-15T01:51:28;11.68;;;6.93;;
60478;SDS011;46321;48.398;11.754;2023-04-15T01:53:53;11.07;;;6.53;;
60478;SDS011;46321;48.398;11.754;2023-04-15T01:56:21;13.30;;;6.75;;
60478;SDS011;46321;48.398;11.754;2023-04-15T01:58:48;9.60;;;6.13;;
60478;SDS011;46321;48.398;11.754;2023-04-15T02:01:13;9.40;;;5.63;;
60478;SDS011;46321;48.398;11.754;2023-04-15T02:03:39;9.95;;;6.15;;
60478;SDS011;46321;48.398;11.754;2023-04-15T02:06:05;10.30;;;6.38;;
60478;SDS011;46321;48.398;11.754;2023-04-15T02:08:31;9.85;;;6.05;;
60478;SDS011;46321;48.398;11.754;2023-04-15T02:10:56;9.45;;;6.03;;
60478;SDS011;46321;48.398;11.754;2023-04-15T02:13:22;9.18;;;5.88;;
60478;SDS011;46321;48.398;11.754;2023-04-15T02:15:47;9.80;;;6.32;;
60478;SDS011;46321;48.398;11.754;2023-04-15T02:18:14;10.88;;;5.78;;
60478;SDS011;46321;48.398;11.754;2023-04-15T02:20:40;10.18;;;6.38;;
60478;SDS011;46321;48.398;11.754;2023-04-15T02:23:05;8.55;;;5.63;;
60478;SDS011;46321;48.398;11.754;2023-04-15T02:25:33;12.02;;;5.95;;
60478;SDS011;46321;48.398;11.754;2023-04-15T02:27:58;9.85;;;5.80;;
60478;SDS011;46321;48.398;11.754;2023-04-15T02:30:24;9.80;;;6.03;;
60478;SDS011;46321;48.398;11.754;2023-04-15T02:32:49;10.75;;;5.72;;
60478;SDS011;46321;48.398;11.754;2023-04-15T02:35:15;11.05;;;5.90;;
60478;SDS011;46321;48.398;11.754;2023-04-15T02:37:43;9.85;;;6.03;;
60478;SDS011;46321;48.398;11.754;2023-04-15T02:40:09;9.63;;;5.93;;
60478;SDS011;46321;48.398;11.754;2023-04-15T02:42:36;10.23;;;5.30;;
60478;SDS011;46321;48.398;11.754;2023-04-15T02:45:02;10.25;;;5.85;;
60478;SDS011;46321;48.398;11.754;2023-04-15T02:47:28;11.10;;;5.97;;
60478;SDS011;46321;48.398;11.754;2023-04-15T02:49:53;10.63;;;6.15;;
60478;SDS011;46321;48.398;11.754;2023-04-15T02:52:18;11.57;;;6.15;;
60478;SDS011;46321;48.398;11.754;2023-04-15T02:54:43;11.23;;;6.18;;
60478;SDS011;46321;48.398;11.754;2023-04-15T02:57:09;10.60;;;6.18;;
60478;SDS011;46321;48.398;11.754;2023-04-15T02:59:35;11.25;;;6.05;;
60478;SDS011;46321;48.398;11.754;2023-04-15T03:02:01;10.20;;;5.95;;
60478;SDS011;46321;48.398;11.754;2023-04-15T03:04:26;10.63;;;6.22;;
60478;SDS011;46321;48.398;11.754;2023-04-15T03:06:54;11.35;;;6.45;;
60478;SDS011;46321;48.398;11.754;2023-04-15T03:09:19;14.23;;;6.18;;
60478;SDS011;46321;48.398;11.754;2023-04-15T03:11:45;11.63;;;6.80;;
60478;SDS011;46321;48.398;11.754;2023-04-15T03:14:10;17.75;;;9.27;;
60478;SDS011;46321;48.398;11.754;2023-04-15T03:16:35;25.30;;;12.75;;
60478;SDS011;46321;48.398;11.754;2023-04-15T03:19:01;11.25;;;6.47;;
60478;SDS011;46321;48.398;11.754;2023-04-15T03:21:26;10.27;;;5.93;;
60478;SDS011;46321;48.398;11.754;2023-04-15T03:23:51;10.60;;;6.40;;
60478;SDS011;46321;48.398;11.754;2023-04-15T03:26:25;9.07;;;5.95;;
60478;SDS011;46321;48.398;11.754;2023-04-15T03:28:54;10.93;;;6.22;;
60478;SDS011;46321;48.398;11.754;2023-04-15T03:31:20;13.07;;;7.15;;
60478;SDS011;46321;48.398;11.754;2023-04-15T03:33:45;10.93;;;6.70;;
60478;SDS011;46321;48.398;11.754;2023-04-15T03:36:11;11.02;;;6.00;;
60478;SDS011;46321;48.398;11.754;2023-04-15T03:38:36;10.95;;;6.38;;
60478;SDS011;46321;48.398;11.754;2023-04-15T03:41:01;10.50;;;6.03;;
60478;SDS011;46321;48.398;11.754;2023-04-15T03:43:26;9.48;;;6.03;;
60478;SDS011;46321;48.398;11.754;2023-04-15T03:45:51;11.73;;;6.50;;
60478;SDS011;46321;48.398;11.754;2023-04-15T03:48:17;11.45;;;6.35;;
60478;SDS011;46321;48.398;11.754;2023-04-15T03:50:42;12.98;;;6.85;;
60478;SDS011;46321;48.398;11.754;2023-04-15T03:53:07;10.63;;;6.47;;
60478;SDS011;46321;48.398;11.754;2023-04-15T03:55:32;11.20;;;6.72;;
60478;SDS011;46321;48.398;11.754;2023-04-15T03:57:58;13.48;;;6.78;;
60478;SDS011;46321;48.398;11.754;2023-04-15T04:00:23;12.20;;;7.38;;
60478;SDS011;46321;48.398;11.754;2023-04-15T04:02:48;12.77;;;6.97;;
60478;SDS011;46321;48.398;11.754;2023-04-15T04:05:14;11.68;;;6.43;;
60478;SDS011;46321;48.398;11.754;2023-04-15T04:07:39;12.27;;;7.13;;
60478;SDS011;46321;48.398;11.754;2023-04-15T04:10:05;12.85;;;7.22;;
60478;SDS011;46321;48.398;11.754;2023-04-15T04:12:31;12.70;;;7.28;;
60478;SDS011;46321;48.398;11.754;2023-04-15T04:14:56;12.75;;;7.43;;
60478;SDS011;46321;48.398;11.754;2023-04-15T04:17:21;13.65;;;6.97;;
60478;SDS011;46321;48.398;11.754;2023-04-15T04:19:47;12.65;;;6.80;;
60478;SDS011;46321;48.398;11.754;2023-04-15T04:22:12;12.07;;;6.55;;
60478;SDS011;46321;48.398;11.754;2023-04-15T04:24:37;13.38;;;7.88;;
60478;SDS011;46321;48.398;11.754;2023-04-15T04:27:02;14.70;;;7.15;;
60478;SDS011;46321;48.398;11.754;2023-04-15T04:29:28;12.70;;;6.85;;
60478;SDS011;46321;48.398;11.754;2023-04-15T04:31:53;12.95;;;6.90;;
60478;SDS011;46321;48.398;11.754;2023-04-15T04:34:18;13.88;;;7.85;;
60478;SDS011;46321;48.398;11.754;2023-04-15T04:36:44;12.65;;;7.32;;
60478;SDS011;46321;48.398;11.754;2023-04-15T04:39:09;12.93;;;6.88;;
60478;SDS011;46321;48.398;11.754;2023-04-15T04:41:34;14.02;;;7.45;;
60478;SDS011;46321;48.398;11.754;2023-04-15T04:44:00;12.95;;;7.20;;
60478;SDS011;46321;48.398;11.754;2023-04-15T04:46:27;15.80;;;7.70;;
60478;SDS011;46321;48.398;11.754;2023-04-15T04:48:52;14.43;;;7.35;;
60478;SDS011;46321;48.398;11.754;2023-04-15T04:51:18;14.55;;;7.60;;
60478;SDS011;46321;48.398;11.754;2023-04-15T04:53:43;14.68;;;7.43;;
60478;SDS011;46321;48.398;11.754;2023-04-15T04:56:08;15.15;;;7.25;;
60478;SDS011;46321;48.398;11.754;2023-04-15T04:58:34;14.85;;;7.32;;
60478;SDS011;46321;48.398;11.754;2023-04-15T05:00:59;15.98;;;7.93;;
60478;SDS011;46321;48.398;11.754;2023-04-15T05:03:24;13.32;;;7.20;;
60478;SDS011;46321;48.398;11.754;2023-04-15T05:05:50;15.52;;;7.90;;
60478;SDS011;46321;48.398;11.754;2023-04-15T05:08:15;12.15;;;6.78;;
60478;SDS011;46321;48.398;11.754;2023-04-15T05:10:40;11.45;;;6.85;;
60478;SDS011;46321;48.398;11.754;2023-04-15T05:13:06;12.75;;;7.13;;
60478;SDS011;46321;48.398;11.754;2023-04-15T05:15:31;13.27;;;6.80;;
60478;SDS011;46321;48.398;11.754;2023-04-15T05:17:57;12.38;;;6.68;;
60478;SDS011;46321;48.398;11.754;2023-04-15T05:20:22;12.05;;;6.35;;
60478;SDS011;46321;48.398;11.754;2023-04-15T05:22:47;12.68;;;6.90;;
60478;SDS011;46321;48.398;11.754;2023-04-15T05:25:13;13.70;;;7.22;;
60478;SDS011;46321;48.398;11.754;2023-04-15T05:27:38;13.52;;;7.43;;
60478;SDS011;46321;48.398;11.754;2023-04-15T05:30:05;12.88;;;7.10;;
60478;SDS011;46321;48.398;11.754;2023-04-15T05:32:31;14.40;;;7.22;;
60478;SDS011;46321;48.398;11.754;2023-04-15T05:34:56;16.13;;;7.80;;
60478;SDS011;46321;48.398;11.754;2023-04-15T05:37:21;11.35;;;6.20;;
60478;SDS011;46321;48.398;11.754;2023-04-15T05:39:47;11.05;;;6.40;;
60478;SDS011;46321;48.398;11.754;2023-04-15T05:42:12;13.07;;;7.05;;
60478;SDS011;46321;48.398;11.754;2023-04-15T05:44:38;16.92;;;9.57;;
60478;SDS011;46321;48.398;11.754;2023-04-15T05:47:03;13.75;;;7.15;;
60478;SDS011;46321;48.398;11.754;2023-04-15T05:49:29;12.00;;;6.40;;
60478;SDS011;46321;48.398;11.754;2023-04-15T05:51:55;11.98;;;6.80;;
60478;SDS011;46321;48.398;11.754;2023-04-15T05:54:20;12.48;;;6.95;;
60478;SDS011;46321;48.398;11.754;2023-04-15T05:56:47;10.77;;;6.63;;
60478;SDS011;46321;48.398;11.754;2023-04-15T05:59:13;12.80;;;6.57;;
60478;SDS011;46321;48.398;11.754;2023-04-15T06:01:38;11.38;;;6.35;;
60478;SDS011;46321;48.398;11.754;2023-04-15T06:04:04;13.02;;;7.28;;
60478;SDS011;46321;48.398;11.754;2023-04-15T06:06:29;11.90;;;6.28;;
60478;SDS011;46321;48.398;11.754;2023-04-15T06:08:56;12.77;;;6.68;;
60478;SDS011;46321;48.398;11.754;2023-04-15T06:11:21;12.20;;;6.50;;
60478;SDS011;46321;48.398;11.754;2023-04-15T06:13:47;11.45;;;6.20;;
60478;SDS011;46321;48.398;11.754;2023-04-15T06:16:12;10.98;;;6.18;;
60478;SDS011;46321;48.398;11.754;2023-04-15T06:18:37;10.82;;;6.20;;
60478;SDS011;46321;48.398;11.754;2023-04-15T06:21:03;10.38;;;6.18;;
60478;SDS011;46321;48.398;11.754;2023-04-15T06:23:28;10.30;;;6.10;;
60478;SDS011;46321;48.398;11.754;2023-04-15T06:25:54;13.70;;;6.22;;
60478;SDS011;46321;48.398;11.754;2023-04-15T06:28:19;11.70;;;6.03;;
60478;SDS011;46321;48.398;11.754;2023-04-15T06:30:44;10.75;;;6.40;;
60478;SDS011;46321;48.398;11.754;2023-04-15T06:33:10;10.65;;;5.78;;
60478;SDS011;46321;48.398;11.754;2023-04-15T06:35:35;10.98;;;6.30;;
60478;SDS011;46321;48.398;11.754;2023-04-15T06:38:00;10.40;;;6.43;;
60478;SDS011;46321;48.398;11.754;2023-04-15T06:40:26;10.32;;;5.55;;
60478;SDS011;46321;48.398;11.754;2023-04-15T06:42:52;10.98;;;6.05;;
60478;SDS011;46321;48.398;11.754;2023-04-15T06:45:17;10.27;;;6.03;;
60478;SDS011;46321;48.398;11.754;2023-04-15T06:47:42;10.63;;;5.72;;
60478;SDS011;46321;48.398;11.754;2023-04-15T06:50:08;11.00;;;6.07;;
60478;SDS011;46321;48.398;11.754;2023-04-15T06:52:34;9.27;;;5.57;;
60478;SDS011;46321;48.398;11.754;2023-04-15T06:55:00;19.48;;;10.02;;
60478;SDS011;46321;48.398;11.754;2023-04-15T06:57:26;13.38;;;6.57;;
60478;SDS011;46321;48.398;11.754;2023-04-15T06:59:52;11.25;;;6.82;;
60478;SDS011;46321;48.398;11.754;2023-04-15T07:02:18;14.13;;;6.22;;
60478;SDS011;46321;48.398;11.754;2023-04-15T07:04:44;9.85;;;5.88;;
60478;SDS011;46321;48.398;11.754;2023-04-15T07:07:09;9.40;;;5.78;;
60478;SDS011;46321;48.398;11.754;2023-04-15T07:09:35;9.70;;;5.68;;
60478;SDS011;46321;48.398;11.754;2023-04-15T07:12:00;9.40;;;5.70;;
60478;SDS011;46321;48.398;11.754;2023-04-15T07:14:25;10.40;;;5.43;;
60478;SDS011;46321;48.398;11.754;2023-04-15T07:16:51;8.60;;;5.55;;
60478;SDS011;46321;48.398;11.754;2023-04-15T07:19:17;10.90;;;5.65;;
60478;SDS011;46321;48.398;11.754;2023-04-15T07:21:43;9.32;;;5.38;;
60478;SDS011;46321;48.398;11.754;2023-04-15T07:24:08;9.27;;;5.95;;
60478;SDS011;46321;48.398;11.754;2023-04-15T07:26:34;11.18;;;6.32;;
60478;SDS011;46321;48.398;11.754;2023-04-15T07:28:59;11.77;;;6.28;;
60478;SDS011;46321;48.398;11.754;2023-04-15T07:31:25;16.77;;;8.85;;
60478;SDS011;46321;48.398;11.754;2023-04-15T07:33:51;9.02;;;5.70;;
60478;SDS011;46321;48.398;11.754;2023-04-15T07:36:17;10.52;;;5.40;;
60478;SDS011;46321;48.398;11.754;2023-04-15T07:38:42;11.43;;;5.60;;
60478;SDS011;46321;48.398;11.754;2023-04-15T07:41:08;9.73;;;5.72;;
60478;SDS011;46321;48.398;11.754;2023-04-15T07:43:34;9.20;;;5.43;;
60478;SDS011;46321;48.398;11.754;2023-04-15T07:45:59;8.15;;;5.18;;
60478;SDS011;46321;48.398;11.754;2023-04-15T07:48:25;8.00;;;4.90;;
60478;SDS011;46321;48.398;11.754;2023-04-15T07:50:50;9.15;;;4.80;;
60478;SDS011;46321;48.398;11.754;2023-04-15T07:53:15;9.07;;;4.93;;
60478;SDS011;46321;48.398;11.754;2023-04-15T07:55:41;10.23;;;5.60;;
60478;SDS011;46321;48.398;11.754;2023-04-15T07:58:06;8.05;;;5.13;;
60478;SDS011;46321;48.398;11.754;2023-04-15T08:00:31;8.63;;;5.15;;
60478;SDS011;46321;48.398;11.754;2023-04-15T08:02:56;8.85;;;5.40;;
60478;SDS011;46321;48.398;11.754;2023-04-15T08:05:23;9.52;;;5.03;;
60478;SDS011;46321;48.398;11.754;2023-04-15T08:07:49;9.27;;;5.32;;
60478;SDS011;46321;48.398;11.754;2023-04-15T08:10:15;6.70;;;4.57;;
60478;SDS011;46321;48.398;11.754;2023-04-15T08:12:40;8.60;;;4.65;;
60478;SDS011;46321;48.398;11.754;2023-04-15T08:15:06;8.13;;;5.35;;
60478;SDS011;46321;48.398;11.754;2023-04-15T08:17:33;8.65;;;5.25;;
60478;SDS011;46321;48.398;11.754;2023-04-15T08:19:58;9.50;;;4.93;;
60478;SDS011;46321;48.398;11.754;2023-04-15T08:22:24;8.23;;;5.13;;
60478;SDS011;46321;48.398;11.754;2023-04-15T08:24:49;7.88;;;4.50;;
60478;SDS011;46321;48.398;11.754;2023-04-15T08:27:15;7.93;;;4.82;;
60478;SDS011;46321;48.398;11.754;2023-04-15T08:29:40;8.95;;;5.43;;
60478;SDS011;46321;48.398;11.754;2023-04-15T08:32:06;8.93;;;4.85;;
60478;SDS011;46321;48.398;11.754;2023-04-15T08:34:31;8.07;;;4.95;;
60478;SDS011;46321;48.398;11.754;2023-04-15T08:36:57;8.55;;;5.20;;
60478;SDS011;46321;48.398;11.754;2023-04-15T08:39:22;10.10;;;5.18;;
60478;SDS011;46321;48.398;11.754;2023-04-15T08:41:51;7.03;;;4.55;;
60478;SDS011;46321;48.398;11.754;2023-04-15T08:44:23;8.88;;;5.50;;
60478;SDS011;46321;48.398;11.754;2023-04-15T08:46:50;10.45;;;6.28;;
60478;SDS011;46321;48.398;11.754;2023-04-15T08:49:16;13.88;;;7.63;;
60478;SDS011;46321;48.398;11.754;2023-04-15T08:51:43;8.05;;;5.00;;
60478;SDS011;46321;48.398;11.754;2023-04-15T08:54:09;7.85;;;4.63;;
60478;SDS011;46321;48.398;11.754;2023-04-15T08:56:35;10.40;;;4.60;;
60478;SDS011;46321;48.398;11.754;2023-04-15T08:59:01;7.45;;;4.28;;
60478;SDS011;46321;48.398;11.754;2023-04-15T09:01:27;5.88;;;4.15;;
60478;SDS011;46321;48.398;11.754;2023-04-15T09:03:53;6.60;;;4.22;;
60478;SDS011;46321;48.398;11.754;2023-04-15T09:06:20;6.45;;;4.35;;
60478;SDS011;46321;48.398;11.754;2023-04-15T09:08:46;10.38;;;5.93;;
60478;SDS011;46321;48.398;11.754;2023-04-15T09:11:12;10.20;;;6.22;;
60478;SDS011;46321;48.398;11.754;2023-04-15T09:13:37;10.00;;;5.13;;
60478;SDS011;46321;48.398;11.754;2023-04-15T09:16:04;7.57;;;4.22;;
60478;SDS011;46321;48.398;11.754;2023-04-15T09:18:31;6.78;;;4.28;;
60478;SDS011;46321;48.398;11.754;2023-04-15T09:21:08;8.18;;;4.72;;
60478;SDS011;46321;48.398;11.754;2023-04-15T09:23:35;10.35;;;4.60;;
60478;SDS011;46321;48.398;11.754;2023-04-15T09:26:02;9.68;;;4.90;;
60478;SDS011;46321;48.398;11.754;2023-04-15T09:28:28;6.93;;;4.22;;
60478;SDS011;46321;48.398;11.754;2023-04-15T09:30:59;6.90;;;4.60;;
60478;SDS011;46321;48.398;11.754;2023-04-15T09:33:27;7.53;;;4.73;;
60478;SDS011;46321;48.398;11.754;2023-04-15T09:38:22;7.90;;;5.03;;
60478;SDS011;46321;48.398;11.754;2023-04-15T09:40:47;8.45;;;5.07;;
60478;SDS011;46321;48.398;11.754;2023-04-15T09:43:12;7.38;;;5.30;;
60478;SDS011;46321;48.398;11.754;2023-04-15T09:45:38;9.30;;;4.80;;
60478;SDS011;46321;48.398;11.754;2023-04-15T09:50:41;11.48;;;5.18;;
60478;SDS011;46321;48.398;11.754;2023-04-15T09:53:10;10.48;;;6.03;;
60478;SDS011;46321;48.398;11.754;2023-04-15T09:55:54;13.77;;;7.40;;
60478;SDS011;46321;48.398;11.754;2023-04-15T09:58:21;7.55;;;5.20;;
60478;SDS011;46321;48.398;11.754;2023-04-15T10:00:51;9.30;;;4.97;;
60478;SDS011;46321;48.398;11.754;2023-04-15T10:03:21;6.30;;;4.22;;
60478;SDS011;46321;48.398;11.754;2023-04-15T10:05:49;9.23;;;5.38;;
60478;SDS011;46321;48.398;11.754;2023-04-15T10:08:16;8.52;;;4.68;;
60478;SDS011;46321;48.398;11.754;2023-04-15T10:10:43;9.25;;;4.95;;
60478;SDS011;46321;48.398;11.754;2023-04-15T10:13:09;9.77;;;5.13;;
60478;SDS011;46321;48.398;11.754;2023-04-15T10:15:37;7.40;;;4.65;;
60478;SDS011;46321;48.398;11.754;2023-04-15T10:18:02;7.57;;;4.93;;
60478;SDS011;46321;48.398;11.754;2023-04-15T10:20:30;7.60;;;4.70;;
60478;SDS011;46321;48.398;11.754;2023-04-15T10:22:55;7.40;;;4.13;;
60478;SDS011;46321;48.398;11.754;2023-04-15T10:25:21;7.53;;;4.60;;
60478;SDS011;46321;48.398;11.754;2023-04-15T10:27:48;8.05;;;4.80;;
60478;SDS011;46321;48.398;11.754;2023-04-15T10:30:16;8.13;;;4.03;;
60478;SDS011;46321;48.398;11.754;2023-04-15T10:32:42;5.15;;;3.72;;
60478;SDS011;46321;48.398;11.754;2023-04-15T10:35:08;7.35;;;4.15;;
60478;SDS011;46321;48.398;11.754;2023-04-15T10:37:35;8.13;;;4.30;;
60478;SDS011;46321;48.398;11.754;2023-04-15T10:42:51;8.60;;;3.88;;
60478;SDS011;46321;48.398;11.754;2023-04-15T10:45:17;7.43;;;4.03;;
60478;SDS011;46321;48.398;11.754;2023-04-15T10:47:43;8.38;;;4.25;;
60478;SDS011;46321;48.398;11.754;2023-04-15T10:50:27;7.35;;;3.83;;
60478;SDS011;46321;48.398;11.754;2023-04-15T10:53:03;5.90;;;3.75;;
60478;SDS011;46321;48.398;11.754;2023-04-15T10:55:32;7.13;;;3.58;;
60478;SDS011;46321;48.398;11.754;2023-04-15T10:57:58;9.20;;;4.00;;
60478;SDS011;46321;48.398;11.754;2023-04-15T11:00:27;6.30;;;4.00;;
60478;SDS011;46321;48.398;11.754;2023-04-15T11:02:54;5.45;;;3.60;;
60478;SDS011;46321;48.398;11.754;2023-04-15T11:08:06;6.60;;;3.83;;
60478;SDS011;46321;48.398;11.754;2023-04-15T11:13:02;13.07;;;7.50;;
60478;SDS011;46321;48.398;11.754;2023-04-15T11:17:59;6.22;;;3.78;;
60478;SDS011;46321;48.398;11.754;2023-04-15T11:20:32;6.18;;;3.95;;
60478;SDS011;46321;48.398;11.754;2023-04-15T11:22:58;7.68;;;4.03;;
60478;SDS011;46321;48.398;11.754;2023-04-15T11:25:24;6.18;;;4.03;;
60478;SDS011;46321;48.398;11.754;2023-04-15T11:27:50;9.20;;;4.10;;
60478;SDS011;46321;48.398;11.754;2023-04-15T11:30:24;7.00;;;4.22;;
60478;SDS011;46321;48.398;11.754;2023-04-15T11:32:52;5.40;;;3.97;;
60478;SDS011;46321;48.398;11.754;2023-04-15T11:35:19;6.05;;;4.18;;
60478;SDS011;46321;48.398;11.754;2023-04-15T11:37:45;10.00;;;4.35;;
60478;SDS011;46321;48.398;11.754;2023-04-15T11:40:11;9.95;;;5.47;;
60478;SDS011;46321;48.398;11.754;2023-04-15T11:42:37;11.57;;;6.10;;
60478;SDS011;46321;48.398;11.754;2023-04-15T11:45:06;10.00;;;5.63;;
60478;SDS011;46321;48.398;11.754;2023-04-15T11:47:36;6.13;;;3.85;;
60478;SDS011;46321;48.398;11.754;2023-04-15T11:50:21;6.30;;;3.70;;
60478;SDS011;46321;48.398;11.754;2023-04-15T11:52:57;7.13;;;4.20;;
60478;SDS011;46321;48.398;11.754;2023-04-15T11:55:25;7.90;;;4.10;;
60478;SDS011;46321;48.398;11.754;2023-04-15T12:00:35;6.97;;;4.38;;
60478;SDS011;46321;48.398;11.754;2023-04-15T12:03:22;7.82;;;4.55;;
60478;SDS011;46321;48.398;11.754;2023-04-15T12:06:22;7.03;;;3.88;;
60478;SDS011;46321;48.398;11.754;2023-04-15T12:13:52;5.80;;;4.00;;
60478;SDS011;46321;48.398;11.754;2023-04-15T12:16:18;8.15;;;4.07;;
60478;SDS011;46321;48.398;11.754;2023-04-15T12:18:51;7.28;;;3.90;;
60478;SDS011;46321;48.398;11.754;2023-04-15T12:21:19;7.80;;;4.35;;
60478;SDS011;46321;48.398;11.754;2023-04-15T12:23:52;14.95;;;5.78;;
60478;SDS011;46321;48.398;11.754;2023-04-15T12:26:29;8.95;;;5.05;;
60478;SDS011;46321;48.398;11.754;2023-04-15T12:29:03;8.90;;;4.80;;
60478;SDS011;46321;48.398;11.754;2023-04-15T12:31:30;9.85;;;4.13;;
60478;SDS011;46321;48.398;11.754;2023-04-15T12:33:57;7.57;;;4.03;;
60478;SDS011;46321;48.398;11.754;2023-04-15T12:36:23;6.75;;;4.30;;
60478;SDS011;46321;48.398;11.754;2023-04-15T12:38:49;6.18;;;4.05;;
60478;SDS011;46321;48.398;11.754;2023-04-15T12:41:14;5.97;;;3.75;;
60478;SDS011;46321;48.398;11.754;2023-04-15T12:43:40;6.88;;;4.20;;
60478;SDS011;46321;48.398;11.754;2023-04-15T12:46:06;5.90;;;3.60;;
60478;SDS011;46321;48.398;11.754;2023-04-15T12:48:32;6.82;;;3.75;;
60478;SDS011;46321;48.398;11.754;2023-04-15T12:50:57;5.72;;;3.83;;
60478;SDS011;46321;48.398;11.754;2023-04-15T12:53:23;5.70;;;4.00;;
60478;SDS011;46321;48.398;11.754;2023-04-15T12:55:48;6.35;;;3.97;;
60478;SDS011;46321;48.398;11.754;2023-04-15T12:58:13;5.18;;;3.60;;
60478;SDS011;46321;48.398;11.754;2023-04-15T13:00:39;7.57;;;3.83;;
60478;SDS011;46321;48.398;11.754;2023-04-15T13:03:04;7.03;;;4.07;;
60478;SDS011;46321;48.398;11.754;2023-04-15T13:05:29;5.93;;;4.07;;
60478;SDS011;46321;48.398;11.754;2023-04-15T13:07:54;6.25;;;3.50;;
60478;SDS011;46321;48.398;11.754;2023-04-15T13:10:20;5.53;;;3.33;;
60478;SDS011;46321;48.398;11.754;2023-04-15T13:12:47;5.10;;;3.38;;
60478;SDS011;46321;48.398;11.754;2023-04-15T13:15:14;5.22;;;3.58;;
60478;SDS011;46321;48.398;11.754;2023-04-15T13:17:39;6.03;;;3.72;;
60478;SDS011;46321;48.398;11.754;2023-04-15T13:20:05;4.55;;;3.10;;
60478;SDS011;46321;48.398;11.754;2023-04-15T13:22:30;6.40;;;3.53;;
60478;SDS011;46321;48.398;11.754;2023-04-15T13:24:55;4.60;;;3.67;;
60478;SDS011;46321;48.398;11.754;2023-04-15T13:27:21;9.50;;;6.30;;
60478;SDS011;46321;48.398;11.754;2023-04-15T13:29:46;6.03;;;3.58;;
60478;SDS011;46321;48.398;11.754;2023-04-15T13:32:11;4.30;;;2.90;;
60478;SDS011;46321;48.398;11.754;2023-04-15T13:34:36;4.95;;;2.85;;
60478;SDS011;46321;48.398;11.754;2023-04-15T13:37:05;3.72;;;2.80;;
60478;SDS011;46321;48.398;11.754;2023-04-15T13:39:31;6.00;;;2.55;;
60478;SDS011;46321;48.398;11.754;2023-04-15T13:41:57;4.00;;;2.80;;
60478;SDS011;46321;48.398;11.754;2023-04-15T13:44:22;4.60;;;2.78;;
60478;SDS011;46321;48.398;11.754;2023-04-15T13:46:47;3.78;;;2.40;;
60478;SDS011;46321;48.398;11.754;2023-04-15T13:49:12;3.28;;;2.47;;
60478;SDS011;46321;48.398;11.754;2023-04-15T13:51:38;4.55;;;2.60;;
60478;SDS011;46321;48.398;11.754;2023-04-15T13:54:04;4.20;;;2.63;;
60478;SDS011;46321;48.398;11.754;2023-04-15T13:56:30;5.38;;;2.85;;
60478;SDS011;46321;48.398;11.754;2023-04-15T13:58:55;8.60;;;3.00;;
60478;SDS011;46321;48.398;11.754;2023-04-15T14:01:22;3.67;;;2.63;;
60478;SDS011;46321;48.398;11.754;2023-04-15T14:03:48;3.58;;;2.70;;
60478;SDS011;46321;48.398;11.754;2023-04-15T14:06:13;4.63;;;3.17;;
60478;SDS011;46321;48.398;11.754;2023-04-15T14:08:39;4.18;;;2.80;;
60478;SDS011;46321;48.398;11.754;2023-04-15T14:11:05;6.57;;;2.83;;
60478;SDS011;46321;48.398;11.754;2023-04-15T14:13:30;4.88;;;2.65;;
60478;SDS011;46321;48.398;11.754;2023-04-15T14:15:55;6.72;;;3.30;;
60478;SDS011;46321;48.398;11.754;2023-04-15T14:18:27;4.90;;;3.00;;
60478;SDS011;46321;48.398;11.754;2023-04-15T14:20:53;4.93;;;2.47;;
60478;SDS011;46321;48.398;11.754;2023-04-15T14:23:19;4.60;;;2.60;;
60478;SDS011;46321;48.398;11.754;2023-04-15T14:25:44;3.60;;;2.50;;
60478;SDS011;46321;48.398;11.754;2023-04-15T14:28:10;5.03;;;3.00;;
60478;SDS011;46321;48.398;11.754;2023-04-15T14:30:35;5.45;;;3.00;;
60478;SDS011;46321;48.398;11.754;2023-04-15T14:33:00;3.65;;;2.70;;
60478;SDS011;46321;48.398;11.754;2023-04-15T14:35:26;4.70;;;3.00;;
60478;SDS011;46321;48.398;11.754;2023-04-15T14:37:52;6.00;;;2.83;;
60478;SDS011;46321;48.398;11.754;2023-04-15T14:40:18;4.80;;;2.40;;
60478;SDS011;46321;48.398;11.754;2023-04-15T14:42:43;5.80;;;3.17;;
60478;SDS011;46321;48.398;11.754;2023-04-15T14:45:09;4.20;;;2.75;;
60478;SDS011;46321;48.398;11.754;2023-04-15T14:47:34;5.13;;;3.00;;
60478;SDS011;46321;48.398;11.754;2023-04-15T14:50:00;7.35;;;2.90;;